createdAt,value
2023-01-27T00:02:05.014Z,-1.20
2023-01-27T00:04:37.067Z,-1.20
2023-01-27T00:07:09.148Z,-1.20
2023-01-27T00:09:41.937Z,-1.20
2023-01-27T00:12:43.687Z,-1.20
2023-01-27T00:15:35.469Z,-1.20
2023-01-27T00:18:08.008Z,-1.20
2023-01-27T00:20:58.965Z,-1.20
2023-01-27T00:24:09.185Z,-1.20
2023-01-27T00:27:00.982Z,-1.20
2023-01-27T00:29:34.144Z,-1.20
2023-01-27T00:32:25.985Z,-1.20
2023-01-27T00:35:18.755Z,-1.20
2023-01-27T00:37:50.767Z,-1.20
2023-01-27T00:40:23.323Z,-1.20
2023-01-27T00:42:55.431Z,-1.20
2023-01-27T00:45:45.694Z,-1.30
2023-01-27T00:48:20.751Z,-1.30
2023-01-27T00:50:52.855Z,-1.30
2023-01-27T00:53:25.283Z,-1.30
2023-01-27T00:56:00.180Z,-1.30
2023-01-27T00:58:32.482Z,-1.20
2023-01-27T01:01:07.968Z,-1.20
2023-01-27T01:03:43.790Z,-1.20
2023-01-27T01:06:17.612Z,-1.20
2023-01-27T01:08:52.462Z,-1.20
2023-01-27T01:11:27.760Z,-1.20
2023-01-27T01:13:59.771Z,-1.20
2023-01-27T01:16:31.875Z,-1.20
2023-01-27T01:19:03.995Z,-1.10
2023-01-27T01:21:37.192Z,-1.10
2023-01-27T01:24:09.473Z,-1.10
2023-01-27T01:26:41.715Z,-1.10
2023-01-27T01:29:13.793Z,-1.10
2023-01-27T01:31:45.842Z,-1.10
2023-01-27T01:34:21.620Z,-1.10
2023-01-27T01:36:53.736Z,-1.10
2023-01-27T01:39:25.731Z,-1.10
2023-01-27T01:41:58.370Z,-1.10
2023-01-27T01:44:32.563Z,-1.10
2023-01-27T01:47:04.634Z,-1.00
2023-01-27T01:49:40.881Z,-1.10
2023-01-27T01:52:17.913Z,-1.10
2023-01-27T01:54:55.153Z,-1.10
2023-01-27T01:57:34.504Z,-1.00
2023-01-27T02:00:09.662Z,-1.10
2023-01-27T02:02:43.108Z,-1.10
2023-01-27T02:05:26.309Z,-1.10
2023-01-27T02:08:17.760Z,-1.00
2023-01-27T02:10:57.515Z,-1.10
2023-01-27T02:13:29.736Z,-1.10
2023-01-27T02:16:02.934Z,-1.00
2023-01-27T02:18:35.939Z,-1.10
2023-01-27T02:21:13.483Z,-1.10
2023-01-27T02:23:56.833Z,-1.00
2023-01-27T02:26:46.611Z,-1.10
2023-01-27T02:29:33.224Z,-1.10
2023-01-27T02:32:05.352Z,-1.10
2023-01-27T02:34:38.230Z,-1.10
2023-01-27T02:37:10.794Z,-1.10
2023-01-27T02:39:45.322Z,-1.10
2023-01-27T02:42:25.687Z,-1.10
2023-01-27T02:44:58.830Z,-1.10
2023-01-27T02:47:30.858Z,-1.20
2023-01-27T02:50:02.790Z,-1.10
2023-01-27T02:52:35.108Z,-1.20
2023-01-27T02:55:07.528Z,-1.10
2023-01-27T02:57:40.285Z,-1.10
2023-01-27T03:00:13.878Z,-1.20
2023-01-27T03:02:46.063Z,-1.20
2023-01-27T03:05:18.208Z,-1.20
2023-01-27T03:07:50.754Z,-1.20
2023-01-27T03:10:22.708Z,-1.20
2023-01-27T03:12:54.754Z,-1.20
2023-01-27T03:15:45.154Z,-1.30
2023-01-27T03:18:37.021Z,-1.30
2023-01-27T03:21:10.120Z,-1.30
2023-01-27T03:23:42.405Z,-1.30
2023-01-27T03:26:16.863Z,-1.30
2023-01-27T03:29:08.862Z,-1.40
2023-01-27T03:32:00.576Z,-1.30
2023-01-27T03:34:32.571Z,-1.30
2023-01-27T03:37:23.035Z,-1.30
2023-01-27T03:40:34.286Z,-1.30
2023-01-27T03:43:44.547Z,-1.30
2023-01-27T03:46:36.287Z,-1.30
2023-01-27T03:49:08.238Z,-1.30
2023-01-27T03:51:40.293Z,-1.30
2023-01-27T03:54:12.357Z,-1.30
2023-01-27T03:56:44.552Z,-1.20
2023-01-27T03:59:18.642Z,-1.30
2023-01-27T04:01:50.883Z,-1.30
2023-01-27T04:04:41.520Z,-1.20
2023-01-27T04:07:36.752Z,-1.20
2023-01-27T04:10:09.523Z,-1.20
2023-01-27T04:12:41.827Z,-1.20
2023-01-27T04:15:14.147Z,-1.20
2023-01-27T04:17:48.123Z,-1.20
2023-01-27T04:20:20.345Z,-1.30
2023-01-27T04:22:52.482Z,-1.30
2023-01-27T04:25:24.649Z,-1.20
2023-01-27T04:27:56.712Z,-1.20
2023-01-27T04:30:29.259Z,-1.20
2023-01-27T04:33:04.770Z,-1.30
2023-01-27T04:35:44.898Z,-1.20
2023-01-27T04:38:17.395Z,-1.30
2023-01-27T04:40:49.455Z,-1.30
2023-01-27T04:43:21.656Z,-1.30
2023-01-27T04:45:53.922Z,-1.30
2023-01-27T04:48:26.191Z,-1.20
2023-01-27T04:50:58.245Z,-1.20
2023-01-27T04:53:30.277Z,-1.20
2023-01-27T04:56:13.057Z,-1.20
2023-01-27T04:58:52.690Z,-1.20
2023-01-27T05:01:25.584Z,-1.20
2023-01-27T05:03:58.826Z,-1.20
2023-01-27T05:06:36.924Z,-1.20
2023-01-27T05:09:09.053Z,-1.20
2023-01-27T05:11:41.156Z,-1.20
2023-01-27T05:14:14.110Z,-1.20
2023-01-27T05:16:46.092Z,-1.20
2023-01-27T05:19:18.056Z,-1.20
2023-01-27T05:21:50.055Z,-1.20
2023-01-27T05:24:22.110Z,-1.20
2023-01-27T05:26:54.283Z,-1.20
2023-01-27T05:29:26.337Z,-1.20
2023-01-27T05:31:58.362Z,-1.20
2023-01-27T05:34:30.432Z,-1.20
2023-01-27T05:37:02.490Z,-1.20
2023-01-27T05:39:34.919Z,-1.20
2023-01-27T05:42:07.554Z,-1.20
2023-01-27T05:44:39.493Z,-1.20
2023-01-27T05:47:11.388Z,-1.20
2023-01-27T05:49:43.395Z,-1.20
2023-01-27T05:52:15.452Z,-1.20
2023-01-27T05:54:47.439Z,-1.10
2023-01-27T05:57:19.581Z,-1.10
2023-01-27T05:59:51.582Z,-1.10
2023-01-27T06:02:23.742Z,-1.10
2023-01-27T06:04:55.793Z,-1.10
2023-01-27T06:07:31.100Z,-1.10
2023-01-27T06:10:03.100Z,-1.10
2023-01-27T06:12:36.757Z,-1.10
2023-01-27T06:15:09.512Z,-1.10
2023-01-27T06:17:41.842Z,-1.10
2023-01-27T06:20:16.230Z,-1.10
2023-01-27T06:22:50.510Z,-1.10
2023-01-27T06:25:22.549Z,-1.10
2023-01-27T06:27:55.719Z,-1.10
2023-01-27T06:30:28.068Z,-1.10
2023-01-27T06:33:00.368Z,-1.10
2023-01-27T06:35:34.675Z,-1.10
2023-01-27T06:38:12.505Z,-1.10
2023-01-27T06:40:46.222Z,-1.10
2023-01-27T06:43:18.276Z,-1.10
2023-01-27T06:45:55.196Z,-1.10
2023-01-27T06:48:29.939Z,-1.10
2023-01-27T06:51:02.138Z,-1.10
2023-01-27T06:53:37.234Z,-1.10
2023-01-27T06:56:09.575Z,-1.00
2023-01-27T06:58:42.764Z,-1.10
2023-01-27T07:01:15.018Z,-1.10
2023-01-27T07:03:47.372Z,-1.10
2023-01-27T07:06:20.322Z,-1.10
2023-01-27T07:09:02.776Z,-1.10
2023-01-27T07:11:35.008Z,-1.00
2023-01-27T07:14:10.229Z,-1.00
2023-01-27T07:16:42.786Z,-1.00
2023-01-27T07:19:15.060Z,-1.00
2023-01-27T07:21:47.650Z,-1.00
2023-01-27T07:24:19.796Z,-0.90
2023-01-27T07:26:51.836Z,-1.00
2023-01-27T07:29:23.840Z,-1.00
2023-01-27T07:31:55.894Z,-1.00
2023-01-27T07:34:28.124Z,-1.00
2023-01-27T07:37:00.130Z,-1.00
2023-01-27T07:39:33.685Z,-1.00
2023-01-27T07:42:08.988Z,-1.00
2023-01-27T07:44:40.999Z,-1.00
2023-01-27T07:47:13.192Z,-1.00
2023-01-27T07:49:45.410Z,-1.00
2023-01-27T07:52:17.953Z,-1.00
2023-01-27T07:54:50.099Z,-0.90
2023-01-27T07:57:22.137Z,-1.00
2023-01-27T07:59:55.758Z,-1.00
2023-01-27T08:02:34.187Z,-1.00
2023-01-27T08:05:07.131Z,-1.00
2023-01-27T08:07:39.583Z,-1.00
2023-01-27T08:10:11.972Z,-1.00
2023-01-27T08:12:45.076Z,-0.90
2023-01-27T08:15:19.151Z,-0.90
2023-01-27T08:17:58.825Z,-0.90
2023-01-27T08:20:32.377Z,-0.90
2023-01-27T08:23:04.702Z,-0.90
2023-01-27T08:25:36.792Z,-0.90
2023-01-27T08:28:08.848Z,-0.90
2023-01-27T08:30:40.907Z,-0.90
2023-01-27T08:33:13.743Z,-0.90
2023-01-27T08:35:46.462Z,-0.90
2023-01-27T08:38:19.711Z,-0.90
2023-01-27T08:40:52.456Z,-0.90
2023-01-27T08:43:24.532Z,-0.90
2023-01-27T08:45:57.033Z,-0.90
2023-01-27T08:48:31.830Z,-0.90
2023-01-27T08:51:06.344Z,-0.90
2023-01-27T08:53:39.761Z,-0.90
2023-01-27T08:56:14.209Z,-0.90
2023-01-27T08:58:48.431Z,-0.90
2023-01-27T09:01:23.904Z,-0.90
2023-01-27T09:03:56.245Z,-0.90
2023-01-27T09:06:28.564Z,-0.80
2023-01-27T09:09:11.492Z,-0.80
2023-01-27T09:11:45.669Z,-0.80
2023-01-27T09:14:20.248Z,-0.80
2023-01-27T09:16:52.310Z,-0.80
2023-01-27T09:19:24.466Z,-0.80
2023-01-27T09:21:56.573Z,-0.80
2023-01-27T09:24:28.676Z,-0.80
2023-01-27T09:27:01.214Z,-0.80
2023-01-27T09:29:33.462Z,-0.80
2023-01-27T09:32:09.423Z,-0.80
2023-01-27T09:34:44.137Z,-0.70
2023-01-27T09:37:16.199Z,-0.70
2023-01-27T09:39:56.009Z,-0.70
2023-01-27T09:42:59.625Z,-0.70
2023-01-27T09:46:14.915Z,-0.60
2023-01-27T09:49:10.073Z,-0.60
2023-01-27T09:52:45.449Z,-0.50
2023-01-27T09:55:55.530Z,-0.50
2023-01-27T09:59:21.019Z,-0.50
2023-01-27T10:02:12.851Z,-0.50
2023-01-27T10:05:17.987Z,-0.50
2023-01-27T10:08:21.741Z,-0.40
2023-01-27T10:11:09.863Z,-0.30
2023-01-27T10:14:25.829Z,-0.30
2023-01-27T10:17:41.474Z,-0.30
2023-01-27T10:20:52.357Z,-0.20
2023-01-27T10:23:58.878Z,-0.20
2023-01-27T10:26:55.571Z,-0.10
2023-01-27T10:29:53.292Z,-0.10
2023-01-27T10:32:38.989Z,0.00
2023-01-27T10:35:24.579Z,0.00
2023-01-27T10:38:14.779Z,0.00
2023-01-27T10:41:23.206Z,0.00
2023-01-27T10:44:31.647Z,0.00
2023-01-27T10:47:26.282Z,0.10
2023-01-27T10:50:34.587Z,0.10
2023-01-27T10:53:22.503Z,0.10
2023-01-27T10:56:27.910Z,0.20
2023-01-27T10:59:55.284Z,0.20
2023-01-27T11:02:59.700Z,0.20
2023-01-27T11:05:45.516Z,0.20
2023-01-27T11:08:43.573Z,0.20
2023-01-27T11:11:39.496Z,0.20
2023-01-27T11:14:41.559Z,0.20
2023-01-27T11:17:28.342Z,0.20
2023-01-27T11:20:36.850Z,0.20
2023-01-27T11:23:18.263Z,0.20
2023-01-27T11:26:24.202Z,0.30
2023-01-27T11:29:39.592Z,0.30
2023-01-27T11:32:27.264Z,0.30
2023-01-27T11:35:12.069Z,0.30
2023-01-27T11:37:50.419Z,0.30
2023-01-27T11:40:38.485Z,0.30
2023-01-27T11:43:18.999Z,0.30
2023-01-27T11:46:04.867Z,0.30
2023-01-27T11:48:42.451Z,0.30
2023-01-27T11:51:28.023Z,0.30
2023-01-27T11:54:23.712Z,0.40
2023-01-27T11:56:58.508Z,0.40
2023-01-27T11:59:38.443Z,0.40
2023-01-27T12:02:32.237Z,0.40
2023-01-27T12:05:15.444Z,0.40
2023-01-27T12:08:00.524Z,0.40
2023-01-27T12:10:35.810Z,0.40
2023-01-27T12:13:25.083Z,0.40
2023-01-27T12:16:02.438Z,0.30
2023-01-27T12:18:47.842Z,0.30
2023-01-27T12:22:07.339Z,0.30
2023-01-27T12:24:52.820Z,0.30
2023-01-27T12:27:49.409Z,0.30
2023-01-27T12:30:28.393Z,0.30
2023-01-27T12:33:13.678Z,0.30
2023-01-27T12:35:59.423Z,0.30
2023-01-27T12:38:55.827Z,0.30
2023-01-27T12:41:38.218Z,0.30
2023-01-27T12:44:19.013Z,0.30
2023-01-27T12:47:01.468Z,0.20
2023-01-27T12:49:46.955Z,0.30
2023-01-27T12:52:22.212Z,0.20
2023-01-27T12:54:57.069Z,0.30
2023-01-27T12:57:32.814Z,0.20
2023-01-27T13:00:06.256Z,0.20
2023-01-27T13:02:47.480Z,0.20
2023-01-27T13:05:20.494Z,0.30
2023-01-27T13:07:54.224Z,0.20
2023-01-27T13:10:28.735Z,0.20
2023-01-27T13:13:01.935Z,0.30
2023-01-27T13:15:37.012Z,0.30
2023-01-27T13:18:23.972Z,0.30
2023-01-27T13:21:13.095Z,0.30
2023-01-27T13:23:54.230Z,0.30
2023-01-27T13:26:31.460Z,0.30
2023-01-27T13:29:24.213Z,0.30
2023-01-27T13:32:26.477Z,0.30
2023-01-27T13:35:18.088Z,0.30
2023-01-27T13:38:29.446Z,0.30
2023-01-27T13:41:21.009Z,0.30
2023-01-27T13:44:17.512Z,0.30
2023-01-27T13:47:02.877Z,0.30
2023-01-27T13:49:48.474Z,0.30
2023-01-27T13:52:26.852Z,0.20
2023-01-27T13:54:59.793Z,0.20
2023-01-27T13:58:04.043Z,0.20
2023-01-27T14:01:13.798Z,0.20
2023-01-27T14:04:49.568Z,0.20
2023-01-27T14:08:32.501Z,0.20
2023-01-27T14:11:38.955Z,0.20
2023-01-27T14:15:00.606Z,0.10
2023-01-27T14:18:15.090Z,0.10
2023-01-27T14:21:34.649Z,0.10
2023-01-27T14:24:40.138Z,0.10
2023-01-27T14:27:31.687Z,0.10
2023-01-27T14:30:44.648Z,0.20
2023-01-27T14:33:35.112Z,0.10
2023-01-27T14:36:31.908Z,0.10
2023-01-27T14:39:33.565Z,0.10
2023-01-27T14:42:31.686Z,0.10
2023-01-27T14:45:47.306Z,0.10
2023-01-27T14:48:57.440Z,0.10
2023-01-27T14:51:52.144Z,0.10
2023-01-27T14:54:46.844Z,0.10
2023-01-27T14:57:46.261Z,0.10
2023-01-27T15:00:31.841Z,0.10
2023-01-27T15:03:38.691Z,0.10
2023-01-27T15:06:59.208Z,0.10
2023-01-27T15:10:06.443Z,0.10
2023-01-27T15:12:59.679Z,0.00
2023-01-27T15:16:29.253Z,0.10
2023-01-27T15:19:24.186Z,0.00
2023-01-27T15:22:44.483Z,0.10
2023-01-27T15:25:55.198Z,0.10
2023-01-27T15:28:32.741Z,0.20
2023-01-27T15:31:17.899Z,0.10
2023-01-27T15:34:23.978Z,0.10
2023-01-27T15:37:10.614Z,0.10
2023-01-27T15:40:06.442Z,0.10
2023-01-27T15:42:54.256Z,0.10
2023-01-27T15:45:38.870Z,0.10
2023-01-27T15:48:22.575Z,0.10
2023-01-27T15:51:04.760Z,0.20
2023-01-27T15:53:45.691Z,0.10
2023-01-27T15:56:46.961Z,0.10
2023-01-27T15:59:30.709Z,0.10
2023-01-27T16:02:26.482Z,0.10
2023-01-27T16:05:28.530Z,0.10
2023-01-27T16:08:15.731Z,0.10
2023-01-27T16:10:48.155Z,0.10
2023-01-27T16:13:25.624Z,0.10
2023-01-27T16:16:17.845Z,0.10
2023-01-27T16:19:11.117Z,0.10
2023-01-27T16:22:12.467Z,0.10
2023-01-27T16:24:59.550Z,0.10
2023-01-27T16:28:15.379Z,0.00
2023-01-27T16:31:12.852Z,0.10
2023-01-27T16:33:57.084Z,0.10
2023-01-27T16:36:36.511Z,0.00
2023-01-27T16:39:25.932Z,0.00
2023-01-27T16:42:19.136Z,0.00
2023-01-27T16:45:07.554Z,0.10
2023-01-27T16:48:20.290Z,0.00
2023-01-27T16:51:13.328Z,0.10
2023-01-27T16:53:53.565Z,0.10
2023-01-27T16:56:32.617Z,0.00
2023-01-27T16:59:10.282Z,0.00
2023-01-27T17:01:52.253Z,0.10
2023-01-27T17:04:31.854Z,0.10
2023-01-27T17:07:17.816Z,0.10
2023-01-27T17:09:58.625Z,0.10
2023-01-27T17:12:47.111Z,0.10
2023-01-27T17:15:29.447Z,0.10
2023-01-27T17:18:11.913Z,0.10
2023-01-27T17:20:50.853Z,0.10
2023-01-27T17:23:43.638Z,0.10
2023-01-27T17:26:18.306Z,0.10
2023-01-27T17:28:50.753Z,0.10
2023-01-27T17:31:25.145Z,0.10
2023-01-27T17:34:01.418Z,0.10
2023-01-27T17:36:34.987Z,0.10
2023-01-27T17:39:25.392Z,0.10
2023-01-27T17:42:01.902Z,0.10
2023-01-27T17:44:37.136Z,0.10
2023-01-27T17:47:16.622Z,0.10
2023-01-27T17:49:51.226Z,0.10
2023-01-27T17:52:27.789Z,0.10
2023-01-27T17:55:05.833Z,0.10
2023-01-27T17:57:50.123Z,0.10
2023-01-27T18:00:40.397Z,0.10
2023-01-27T18:03:22.453Z,0.10
2023-01-27T18:05:59.392Z,0.10
2023-01-27T18:08:35.662Z,0.10
2023-01-27T18:11:20.892Z,0.10
2023-01-27T18:14:18.374Z,0.10
2023-01-27T18:17:06.162Z,0.10
2023-01-27T18:19:57.305Z,0.10
2023-01-27T18:22:30.254Z,0.10
2023-01-27T18:25:06.519Z,0.10
2023-01-27T18:27:53.362Z,0.10
2023-01-27T18:30:27.116Z,0.10
2023-01-27T18:33:06.362Z,0.10
2023-01-27T18:35:42.490Z,0.10
2023-01-27T18:38:36.168Z,0.10
2023-01-27T18:41:23.393Z,0.10
2023-01-27T18:44:01.155Z,0.10
2023-01-27T18:46:34.025Z,0.10
2023-01-27T18:49:10.710Z,0.10
2023-01-27T18:51:43.660Z,0.10
2023-01-27T18:54:16.289Z,0.10
2023-01-27T18:56:49.663Z,0.10
2023-01-27T18:59:22.378Z,0.10
2023-01-27T19:01:55.732Z,0.10
2023-01-27T19:04:28.844Z,0.10
2023-01-27T19:07:05.427Z,0.10
2023-01-27T19:09:47.977Z,0.10
2023-01-27T19:12:20.268Z,0.10
2023-01-27T19:14:52.565Z,0.20
2023-01-27T19:17:25.333Z,0.20
2023-01-27T19:19:58.734Z,0.20
2023-01-27T19:22:32.192Z,0.20
2023-01-27T19:25:06.851Z,0.20
2023-01-27T19:27:42.590Z,0.20
2023-01-27T19:30:37.487Z,0.20
2023-01-27T19:33:21.848Z,0.20
2023-01-27T19:36:01.642Z,0.20
2023-01-27T19:38:53.919Z,0.20
2023-01-27T19:41:31.805Z,0.20
2023-01-27T19:44:05.351Z,0.20
2023-01-27T19:46:40.366Z,0.20
2023-01-27T19:49:19.559Z,0.20
2023-01-27T19:51:54.014Z,0.20
2023-01-27T19:54:27.821Z,0.20
2023-01-27T19:57:02.053Z,0.20
2023-01-27T19:59:35.793Z,0.20
2023-01-27T20:02:13.173Z,0.20
2023-01-27T20:04:50.168Z,0.20
2023-01-27T20:07:24.498Z,0.20
2023-01-27T20:09:57.589Z,0.30
2023-01-27T20:12:30.482Z,0.20
2023-01-27T20:15:04.745Z,0.20
2023-01-27T20:17:46.944Z,0.20
2023-01-27T20:20:23.288Z,0.20
2023-01-27T20:23:01.851Z,0.20
2023-01-27T20:25:35.500Z,0.30
2023-01-27T20:28:13.422Z,0.20
2023-01-27T20:30:49.474Z,0.20
2023-01-27T20:33:36.591Z,0.20
2023-01-27T20:36:13.730Z,0.20
2023-01-27T20:38:50.538Z,0.20
2023-01-27T20:41:26.138Z,0.20
2023-01-27T20:44:09.451Z,0.20
2023-01-27T20:46:45.848Z,0.20
2023-01-27T20:49:42.271Z,0.20
2023-01-27T20:52:55.315Z,0.30
2023-01-27T20:55:31.606Z,0.20
2023-01-27T20:58:12.366Z,0.20
2023-01-27T21:00:54.237Z,0.20
2023-01-27T21:03:56.200Z,0.20
2023-01-27T21:06:32.449Z,0.20
2023-01-27T21:09:16.761Z,0.20
2023-01-27T21:11:51.589Z,0.20
2023-01-27T21:14:24.516Z,0.30
2023-01-27T21:16:57.532Z,0.20
2023-01-27T21:19:31.389Z,0.30
2023-01-27T21:22:04.355Z,0.30
2023-01-27T21:24:38.596Z,0.30
2023-01-27T21:27:13.471Z,0.30
2023-01-27T21:29:46.257Z,0.30
2023-01-27T21:32:18.728Z,0.30
2023-01-27T21:34:52.047Z,0.30
2023-01-27T21:37:24.499Z,0.30
2023-01-27T21:39:57.652Z,0.30
2023-01-27T21:42:50.349Z,0.30
2023-01-27T21:45:42.297Z,0.30
2023-01-27T21:48:15.333Z,0.30
2023-01-27T21:50:51.973Z,0.30
2023-01-27T21:53:26.208Z,0.30
2023-01-27T21:56:06.618Z,0.30
2023-01-27T21:58:41.076Z,0.30
2023-01-27T22:01:13.702Z,0.30
2023-01-27T22:03:47.084Z,0.40
2023-01-27T22:06:19.579Z,0.40
2023-01-27T22:08:52.504Z,0.40
2023-01-27T22:11:25.184Z,0.30
2023-01-27T22:13:57.358Z,0.40
2023-01-27T22:16:29.960Z,0.30
2023-01-27T22:19:02.523Z,0.30
2023-01-27T22:21:34.737Z,0.30
2023-01-27T22:24:09.335Z,0.30
2023-01-27T22:26:41.884Z,0.30
2023-01-27T22:29:14.317Z,0.30
2023-01-27T22:32:19.073Z,0.30
2023-01-27T22:34:51.641Z,0.40
2023-01-27T22:37:23.822Z,0.30
2023-01-27T22:39:58.376Z,0.30
2023-01-27T22:42:31.092Z,0.30
2023-01-27T22:45:03.814Z,0.30
2023-01-27T22:47:37.832Z,0.30
2023-01-27T22:50:10.849Z,0.40
2023-01-27T22:52:43.407Z,0.40
2023-01-27T22:55:16.516Z,0.40
2023-01-27T22:57:51.151Z,0.40
2023-01-27T23:00:23.579Z,0.40
2023-01-27T23:02:55.661Z,0.40
2023-01-27T23:05:28.409Z,0.40
2023-01-27T23:08:01.466Z,0.40
2023-01-27T23:10:35.449Z,0.30
2023-01-27T23:13:07.973Z,0.30
2023-01-27T23:15:40.231Z,0.30
2023-01-27T23:18:12.474Z,0.30
2023-01-27T23:20:45.160Z,0.30
2023-01-27T23:23:19.329Z,0.30
2023-01-27T23:25:51.357Z,0.30
2023-01-27T23:28:23.400Z,0.30
2023-01-27T23:30:55.964Z,0.30
2023-01-27T23:33:35.369Z,0.30
2023-01-27T23:36:10.413Z,0.30
2023-01-27T23:38:43.153Z,0.30
2023-01-27T23:41:45.415Z,0.30
2023-01-27T23:44:17.794Z,0.30
2023-01-27T23:46:50.143Z,0.30
2023-01-27T23:49:22.198Z,0.30
2023-01-27T23:51:54.329Z,0.30
2023-01-27T23:54:26.617Z,0.30
2023-01-27T23:56:58.638Z,0.30
2023-01-27T23:59:30.614Z,0.30
